Time;durP1;ratioP1;P1;durP2;ratioP2;P2;SDS_P1;SDS_P2;PMS_P1;PMS_P2;Temp;Humidity;BMP_temperature;BMP_pressure;BME280_temperature;BME280_humidity;BME280_pressure;Samples;Min_cycle;Max_cycle;Signal;HPM_P1;HPM_P2
2022/07/05 03:02:24;;;;;;;5.32;4.38;;;12.80;99.90;;;;;;6236037;22;20020;-85
2022/07/05 03:04:51;;;;;;;5.20;4.20;;;12.70;99.90;;;;;;6245167;23;20016;-85
2022/07/05 03:07:16;;;;;;;6.07;4.07;;;12.60;99.90;;;;;;6220694;23;20441;-86
2022/07/05 03:09:42;;;;;;;8.27;5.38;;;12.60;99.90;;;;;;6245986;23;20020;-85
2022/07/05 03:12:08;;;;;;;8.20;5.43;;;12.50;99.90;;;;;;6245726;22;20019;-84
2022/07/05 03:14:34;;;;;;;6.85;5.20;;;12.50;99.90;;;;;;6245153;23;20441;-84
2022/07/05 03:17:01;;;;;;;8.65;5.60;;;12.50;99.90;;;;;;6220662;23;20019;-84
2022/07/05 03:19:27;;;;;;;7.78;5.13;;;12.50;99.90;;;;;;6245972;23;20008;-84
2022/07/05 03:21:52;;;;;;;10.10;5.93;;;12.50;99.90;;;;;;6247451;22;20008;-85
2022/07/05 03:24:18;;;;;;;10.23;6.47;;;12.40;99.90;;;;;;6245997;23;20314;-85
2022/07/05 03:26:43;;;;;;;9.90;5.88;;;12.50;99.90;;;;;;6245106;23;20058;-85
2022/07/05 03:29:09;;;;;;;8.98;6.63;;;12.50;99.90;;;;;;6245392;23;20023;-82
2022/07/05 03:31:35;;;;;;;8.27;6.10;;;12.50;99.90;;;;;;6247609;22;20012;-83
2022/07/05 03:34:01;;;;;;;8.57;5.95;;;12.50;99.90;;;;;;6245899;23;20399;-83
2022/07/05 03:36:27;;;;;;;11.13;6.38;;;12.50;99.90;;;;;;6246424;22;20020;-84
2022/07/05 03:38:53;;;;;;;6.85;5.90;;;12.50;99.90;;;;;;6247652;23;20020;-81
2022/07/05 03:41:18;;;;;;;8.23;5.80;;;12.50;99.90;;;;;;6220653;23;20012;-85
2022/07/05 03:43:44;;;;;;;10.13;6.03;;;12.50;99.90;;;;;;6220488;23;20020;-85
2022/07/05 03:46:09;;;;;;;7.90;5.85;;;12.60;99.90;;;;;;6246014;23;20104;-85
2022/07/05 03:48:35;;;;;;;9.77;5.53;;;12.60;99.90;;;;;;6246394;23;20023;-85
2022/07/05 03:51:01;;;;;;;6.53;5.18;;;12.60;99.90;;;;;;6245902;22;20008;-86
2022/07/05 03:53:27;;;;;;;8.98;5.35;;;12.50;99.90;;;;;;6222415;23;20294;-83
2022/07/05 03:55:52;;;;;;;7.22;5.18;;;12.60;99.90;;;;;;6247771;23;20016;-85
2022/07/05 03:58:18;;;;;;;8.02;5.13;;;12.50;99.90;;;;;;6247121;23;20434;-85
2022/07/05 04:00:44;;;;;;;8.13;5.82;;;12.60;99.90;;;;;;6247730;22;20016;-85
2022/07/05 04:03:09;;;;;;;8.23;5.03;;;12.70;99.90;;;;;;6248968;23;20008;-85
2022/07/05 04:05:35;;;;;;;9.05;5.32;;;12.70;99.90;;;;;;6250263;23;20074;-86
2022/07/05 04:08:00;;;;;;;9.70;5.80;;;12.80;99.90;;;;;;6249935;22;20326;-86
2022/07/05 04:10:26;;;;;;;8.00;4.80;;;12.90;99.90;;;;;;6222663;22;20023;-87
2022/07/05 04:12:52;;;;;;;8.32;5.10;;;12.90;99.90;;;;;;6247815;23;20023;-82
2022/07/05 04:15:17;;;;;;;7.43;5.10;;;13.00;99.90;;;;;;6248125;23;20083;-85
2022/07/05 04:17:47;;;;;;;8.70;5.70;;;13.10;99.90;;;;;;6248023;23;20070;-83
2022/07/05 04:20:13;;;;;;;8.10;4.97;;;13.20;99.90;;;;;;6247581;22;20012;-84
2022/07/05 04:22:38;;;;;;;7.53;4.55;;;13.30;99.90;;;;;;6249652;23;20074;-85
2022/07/05 04:25:22;;;;;;;8.48;4.63;;;13.30;99.90;;;;;;6247975;23;20051;-85
2022/07/05 04:27:52;;;;;;;6.25;4.60;;;13.40;99.90;;;;;;6247962;23;20012;-86
2022/07/05 04:30:25;;;;;;;8.77;4.93;;;13.50;99.90;;;;;;6247987;22;20091;-86
2022/07/05 04:32:51;;;;;;;6.00;4.32;;;13.50;99.90;;;;;;6248041;23;20011;-86
2022/07/05 04:35:17;;;;;;;6.90;4.55;;;13.60;99.90;;;;;;6247847;23;20012;-86
2022/07/05 04:37:43;;;;;;;7.80;3.97;;;13.60;99.90;;;;;;6247747;23;20054;-85
2022/07/05 04:40:11;;;;;;;6.63;4.13;;;13.70;99.90;;;;;;6222532;23;20012;-84
2022/07/05 04:42:37;;;;;;;5.00;3.72;;;13.70;99.90;;;;;;6249537;22;20047;-86
2022/07/05 04:45:03;;;;;;;7.72;3.63;;;13.70;99.90;;;;;;6247865;23;20012;-85
2022/07/05 04:47:29;;;;;;;7.90;4.30;;;13.80;99.90;;;;;;6247598;23;20020;-86
2022/07/05 04:49:56;;;;;;;6.72;3.70;;;13.80;99.90;;;;;;6248152;23;20091;-83
2022/07/05 04:52:22;;;;;;;6.88;3.95;;;13.80;99.90;;;;;;6246962;22;20015;-85
2022/07/05 04:54:48;;;;;;;8.20;4.18;;;13.90;99.90;;;;;;6247611;23;20083;-86
2022/07/05 04:57:13;;;;;;;4.63;3.60;;;13.90;99.90;;;;;;6222685;23;20359;-87
2022/07/05 04:59:39;;;;;;;6.43;3.72;;;13.90;99.90;;;;;;6247407;23;20040;-86
2022/07/05 05:02:05;;;;;;;6.28;4.20;;;14.00;99.90;;;;;;6247504;22;20110;-86
2022/07/05 05:04:30;;;;;;;6.03;4.25;;;14.00;99.90;;;;;;6221737;23;20018;-86
2022/07/05 05:06:56;;;;;;;9.55;4.35;;;14.10;99.90;;;;;;6222116;23;20095;-85
2022/07/05 05:09:22;;;;;;;7.28;4.22;;;14.10;99.90;;;;;;6247621;23;20342;-83
2022/07/05 05:11:48;;;;;;;8.27;4.63;;;14.10;99.90;;;;;;6247365;22;20030;-85
2022/07/05 05:14:14;;;;;;;7.30;3.90;;;14.10;99.90;;;;;;6246656;23;20074;-87
2022/07/05 05:16:39;;;;;;;6.85;3.60;;;14.10;99.90;;;;;;6247400;23;20012;-86
2022/07/05 05:19:05;;;;;;;8.50;4.00;;;14.10;99.90;;;;;;6247450;23;20433;-87
2022/07/05 05:21:30;;;;;;;5.68;3.60;;;14.10;99.90;;;;;;6247506;22;20087;-86
2022/07/05 05:23:56;;;;;;;6.82;3.70;;;14.10;99.90;;;;;;6247901;23;20095;-85
2022/07/05 05:26:22;;;;;;;5.88;3.90;;;14.10;99.90;;;;;;6222184;23;20016;-86
2022/07/05 05:28:47;;;;;;;6.43;2.90;;;14.10;99.90;;;;;;6249165;23;20068;-86
2022/07/05 05:31:13;;;;;;;6.05;2.75;;;14.20;99.90;;;;;;6247288;22;20012;-86
2022/07/05 05:33:39;;;;;;;4.00;3.08;;;14.20;99.90;;;;;;6247048;23;20016;-81
2022/07/05 05:36:05;;;;;;;6.63;3.40;;;14.30;99.90;;;;;;6246533;23;20081;-86
2022/07/05 05:38:32;;;;;;;5.57;3.20;;;14.40;99.90;;;;;;6247235;23;20012;-86
2022/07/05 05:40:57;;;;;;;5.43;3.05;;;14.50;99.90;;;;;;6247083;22;20052;-86
2022/07/05 05:43:23;;;;;;;8.07;4.32;;;14.60;99.90;;;;;;6247032;23;20007;-86
2022/07/05 05:45:49;;;;;;;5.47;3.70;;;14.60;99.90;;;;;;6246888;23;20012;-86
2022/07/05 05:48:15;;;;;;;5.85;3.78;;;14.70;99.90;;;;;;6246593;23;20016;-85
2022/07/05 05:50:40;;;;;;;6.88;3.17;;;14.70;99.90;;;;;;6246888;22;20022;-86
2022/07/05 05:53:07;;;;;;;6.55;3.45;;;14.80;99.90;;;;;;6246849;23;20096;-83
2022/07/05 05:55:33;;;;;;;4.82;3.42;;;14.90;99.90;;;;;;6248283;23;20012;-86
2022/07/05 05:58:20;;;;;;;7.65;3.33;;;14.90;99.90;;;;;;6248143;23;20012;-85
2022/07/05 06:00:50;;;;;;;5.80;3.30;;;15.00;99.90;;;;;;6246758;22;20099;-84
2022/07/05 06:03:16;;;;;;;9.35;3.05;;;15.00;99.90;;;;;;6246721;23;20019;-85
2022/07/05 06:05:42;;;;;;;4.95;2.50;;;15.10;99.90;;;;;;6245925;23;20016;-85
2022/07/05 06:08:08;;;;;;;4.35;2.33;;;15.20;99.90;;;;;;6247047;23;20030;-87
2022/07/05 06:10:35;;;;;;;10.68;3.08;;;15.30;99.90;;;;;;6221568;22;20019;-86
2022/07/05 06:13:04;;;;;;;8.82;2.53;;;15.40;99.90;;;;;;6248195;22;20008;-88
2022/07/05 06:15:31;;;;;;;6.18;2.30;;;15.50;99.90;;;;;;6246406;23;20439;-87
2022/07/05 06:17:57;;;;;;;4.53;2.08;;;15.60;99.90;;;;;;6248200;22;20095;-86
2022/07/05 06:20:28;;;;;;;6.47;2.15;;;15.60;99.90;;;;;;6246163;22;20130;-85
2022/07/05 06:22:55;;;;;;;9.48;2.70;;;15.70;99.90;;;;;;6245849;23;20023;-86
2022/07/05 06:25:21;;;;;;;7.47;1.80;;;15.80;99.90;;;;;;6246700;23;20087;-86
2022/07/05 06:27:53;;;;;;;9.32;2.28;;;15.80;99.90;;;;;;6246266;23;20090;-85
2022/07/05 06:30:20;;;;;;;6.97;2.10;;;15.90;99.90;;;;;;6246515;22;20438;-87
2022/07/05 06:32:47;;;;;;;6.32;1.90;;;16.00;99.90;;;;;;6247356;23;20089;-85
2022/07/05 06:35:14;;;;;;;7.10;1.90;;;16.10;99.90;;;;;;6245559;23;20066;-79
2022/07/05 06:38:06;;;;;;;3.75;1.70;;;16.10;99.90;;;;;;6249329;22;20116;-88
2022/07/05 06:40:33;;;;;;;7.25;2.05;;;16.10;99.90;;;;;;6245385;22;20058;-81
2022/07/05 06:43:02;;;;;;;4.45;1.20;;;16.20;99.90;;;;;;6246692;23;20008;-84
2022/07/05 06:45:28;;;;;;;7.85;1.10;;;16.30;99.90;;;;;;6247192;23;20016;-84
2022/07/05 06:48:05;;;;;;;5.60;0.95;;;16.30;99.90;;;;;;6247831;23;20015;-83
2022/07/05 06:50:35;;;;;;;2.78;0.90;;;16.40;99.90;;;;;;6247318;22;20019;-84
2022/07/05 06:53:01;;;;;;;8.98;1.00;;;16.40;99.90;;;;;;6245331;23;20047;-85
2022/07/05 06:55:28;;;;;;;4.43;1.00;;;16.50;99.90;;;;;;6245826;23;20016;-84
2022/07/05 06:58:03;;;;;;;5.75;1.00;;;16.60;99.90;;;;;;6245567;23;20038;-85
2022/07/05 07:00:29;;;;;;;6.90;0.90;;;16.70;99.90;;;;;;6245136;22;20012;-84
2022/07/05 07:02:55;;;;;;;5.63;1.10;;;16.90;99.90;;;;;;6247708;22;20015;-82
2022/07/05 07:05:21;;;;;;;3.78;0.85;;;16.90;99.90;;;;;;6245930;23;20035;-83
2022/07/05 07:10:31;;;;;;;4.15;1.13;;;17.00;99.90;;;;;;6247241;22;20072;-83
2022/07/05 07:12:58;;;;;;;4.25;1.17;;;17.10;99.90;;;;;;6247708;23;20461;-80
2022/07/05 07:15:24;;;;;;;4.82;0.95;;;17.20;99.90;;;;;;6247169;23;20017;-80
2022/07/05 07:17:50;;;;;;;6.63;1.00;;;17.20;99.90;;;;;;6245010;23;20372;-84
2022/07/05 07:20:15;;;;;;;3.28;0.90;;;17.20;99.90;;;;;;6245115;22;20048;-84
2022/07/05 07:22:41;;;;;;;4.38;0.80;;;17.30;99.90;;;;;;6247443;23;20043;-83
2022/07/05 07:25:08;;;;;;;3.00;0.75;;;17.20;99.90;;;;;;6247093;23;20016;-83
2022/07/05 07:27:44;;;;;;;4.53;1.00;;;17.20;99.90;;;;;;6245450;23;20012;-81
2022/07/05 07:30:14;;;;;;;7.55;0.77;;;17.10;99.90;;;;;;6245797;23;20016;-82
2022/07/05 07:32:40;;;;;;;3.13;0.95;;;17.10;99.90;;;;;;6246660;23;20012;-82
2022/07/05 07:35:07;;;;;;;5.95;0.70;;;17.10;99.90;;;;;;6246065;23;20013;-82
2022/07/05 07:37:33;;;;;;;3.95;1.20;;;17.10;99.90;;;;;;6244991;23;20012;-82
2022/07/05 07:39:58;;;;;;;4.68;0.80;;;17.10;99.90;;;;;;6247233;23;20008;-82
2022/07/05 07:42:24;;;;;;;4.90;0.90;;;17.30;99.90;;;;;;6245770;22;20049;-81
2022/07/05 07:44:50;;;;;;;9.98;1.08;;;17.40;99.90;;;;;;6245148;23;20027;-85
2022/07/05 07:47:15;;;;;;;3.47;0.82;;;17.50;99.90;;;;;;6245682;23;20019;-79
2022/07/05 07:49:41;;;;;;;3.75;0.75;;;17.60;99.90;;;;;;6243455;23;20024;-82
2022/07/05 07:52:07;;;;;;;11.00;1.08;;;17.70;99.90;;;;;;6244818;22;20103;-82
2022/07/05 07:54:33;;;;;;;4.03;0.60;;;17.70;99.90;;;;;;6245232;23;20351;-82
2022/07/05 07:57:04;;;;;;;2.55;0.75;;;17.70;99.90;;;;;;6244549;23;20343;-81
2022/07/05 07:59:33;;;;;;;5.32;1.00;;;17.80;99.90;;;;;;6246940;23;20430;-82
2022/07/05 08:01:58;;;;;;;4.78;0.70;;;17.90;99.90;;;;;;6244603;22;20019;-82
2022/07/05 08:04:24;;;;;;;5.43;1.02;;;18.00;99.90;;;;;;6219507;23;20012;-81
2022/07/05 08:06:50;;;;;;;5.22;0.80;;;18.00;99.90;;;;;;6219746;23;20411;-79
2022/07/05 08:09:20;;;;;;;2.63;0.88;;;18.00;99.90;;;;;;6245346;23;20092;-81
2022/07/05 08:11:46;;;;;;;5.25;0.88;;;17.90;99.90;;;;;;6245117;22;20026;-81
2022/07/05 08:14:13;;;;;;;7.95;1.48;;;17.80;99.90;;;;;;6222189;23;20330;-80
2022/07/05 08:16:38;;;;;;;5.82;1.00;;;17.90;99.90;;;;;;6250402;23;20051;-81
2022/07/05 08:21:49;;;;;;;3.53;1.05;;;18.10;99.90;;;;;;6248818;22;20012;-83
2022/07/05 08:24:15;;;;;;;4.40;1.17;;;18.10;99.90;;;;;;6246981;23;20039;-83
2022/07/05 08:26:41;;;;;;;2.95;0.90;;;18.20;99.90;;;;;;6245609;23;20020;-83
2022/07/05 08:29:12;;;;;;;5.35;0.88;;;18.20;99.90;;;;;;6245225;23;20050;-82
2022/07/05 08:31:43;;;;;;;5.18;1.00;;;18.10;99.90;;;;;;6246757;22;20024;-82
2022/07/05 08:34:09;;;;;;;3.88;1.00;;;18.10;99.90;;;;;;6245280;23;20016;-81
2022/07/05 08:36:35;;;;;;;3.80;0.70;;;18.10;99.90;;;;;;6245017;23;20398;-82
2022/07/05 08:39:00;;;;;;;5.93;1.10;;;18.20;99.90;;;;;;6246129;23;20048;-80
2022/07/05 08:41:28;;;;;;;2.42;0.90;;;18.20;99.90;;;;;;6247889;22;20418;-82
2022/07/05 08:43:57;;;;;;;4.05;1.23;;;18.20;99.90;;;;;;6247139;23;20442;-82
2022/07/05 08:46:36;;;;;;;6.40;1.50;;;18.20;99.90;;;;;;6247117;23;20434;-82
2022/07/05 08:49:04;;;;;;;3.28;1.00;;;18.20;99.90;;;;;;6221046;23;20446;-81
2022/07/05 08:51:36;;;;;;;4.07;0.93;;;18.10;99.90;;;;;;6247897;22;20016;-82
2022/07/05 08:54:02;;;;;;;4.10;0.95;;;18.20;99.90;;;;;;6247120;23;20009;-83
2022/07/05 08:56:29;;;;;;;6.40;1.00;;;18.40;99.90;;;;;;6221317;23;20442;-84
2022/07/05 08:58:54;;;;;;;4.05;0.82;;;18.40;99.90;;;;;;6246714;23;20342;-83
2022/07/05 09:01:22;;;;;;;7.13;1.10;;;18.50;99.90;;;;;;6248285;22;20012;-83
2022/07/05 09:03:52;;;;;;;6.13;1.60;;;18.60;99.90;;;;;;6247129;23;20012;-82
2022/07/05 09:06:20;;;;;;;4.65;1.38;;;18.70;99.90;;;;;;6222238;23;20074;-83
2022/07/05 09:08:48;;;;;;;4.45;0.90;;;18.80;99.90;;;;;;6222310;23;20023;-83
2022/07/05 09:11:15;;;;;;;4.95;1.00;;;18.90;99.90;;;;;;6247188;22;20315;-82
2022/07/05 09:13:48;;;;;;;5.88;1.20;;;18.90;99.90;;;;;;6246818;23;20027;-83
2022/07/05 09:16:15;;;;;;;3.80;0.93;;;18.90;99.90;;;;;;6247326;23;20095;-83
2022/07/05 09:18:44;;;;;;;5.60;1.05;;;18.90;99.90;;;;;;6222554;23;20508;-82
2022/07/05 09:21:26;;;;;;;4.68;1.08;;;18.80;99.90;;;;;;6247431;22;20509;-83
2022/07/05 09:24:05;;;;;;;4.32;1.08;;;18.80;99.90;;;;;;6247101;23;20012;-82
2022/07/05 09:26:37;;;;;;;5.45;1.73;;;18.70;99.90;;;;;;6246528;23;20020;-82
2022/07/05 09:29:08;;;;;;;3.15;1.05;;;18.60;99.90;;;;;;6248115;23;20020;-83
2022/07/05 09:31:39;;;;;;;5.88;1.27;;;18.50;99.90;;;;;;6246467;22;20016;-82
2022/07/05 09:34:16;;;;;;;4.78;1.23;;;18.50;99.90;;;;;;6221415;23;20465;-82
2022/07/05 09:37:02;;;;;;;4.65;1.10;;;18.70;99.90;;;;;;6222120;23;20146;-83
2022/07/05 09:39:36;;;;;;;4.65;1.25;;;18.70;99.90;;;;;;6247221;23;20016;-83
2022/07/05 09:42:23;;;;;;;3.63;1.10;;;18.90;99.90;;;;;;6246642;22;20432;-83
2022/07/05 09:45:00;;;;;;;3.17;1.00;;;19.10;99.90;;;;;;6248920;23;20008;-82
2022/07/05 09:47:29;;;;;;;5.78;1.20;;;19.00;99.90;;;;;;6222262;23;20087;-84
2022/07/05 09:49:56;;;;;;;6.65;1.33;;;18.90;99.90;;;;;;6248389;23;20369;-81
2022/07/05 09:52:37;;;;;;;5.82;1.23;;;18.80;99.90;;;;;;6246787;22;20015;-83
2022/07/05 09:55:21;;;;;;;;;;;;;;;;;;;;;
2022/07/05 09:57:57;;;;;;;4.95;1.40;;;18.80;99.90;;;;;;6247093;23;20023;-83
2022/07/05 10:00:23;;;;;;;6.03;1.58;;;19.10;99.90;;;;;;6246806;22;20012;-83
2022/07/05 10:02:51;;;;;;;4.15;1.00;;;19.30;99.90;;;;;;6247045;23;20039;-81
2022/07/05 10:05:21;;;;;;;2.83;1.00;;;19.30;99.90;;;;;;6246304;23;20469;-81
2022/07/05 10:07:54;;;;;;;5.50;1.10;;;19.20;99.90;;;;;;6246261;23;20012;-81
2022/07/05 10:10:29;;;;;;;3.97;1.20;;;19.20;99.90;;;;;;6220631;22;20457;-84
2022/07/05 10:13:03;;;;;;;4.03;1.13;;;18.90;99.90;;;;;;6245701;23;20048;-82
2022/07/05 10:15:31;;;;;;;5.45;1.20;;;18.90;99.90;;;;;;6246031;23;20012;-83
2022/07/05 10:18:04;;;;;;;3.65;0.98;;;18.80;99.90;;;;;;6246224;23;20324;-85
2022/07/05 10:20:37;;;;;;;7.30;1.38;;;19.00;99.90;;;;;;6222223;22;20008;-82
2022/07/05 10:23:08;;;;;;;2.50;0.80;;;19.20;99.90;;;;;;6248475;23;20472;-83
2022/07/05 10:25:39;;;;;;;4.80;1.50;;;19.10;99.90;;;;;;6247779;23;20012;-83
2022/07/05 10:28:06;;;;;;;5.53;1.50;;;19.10;99.90;;;;;;6246922;23;20024;-83
2022/07/05 10:30:33;;;;;;;5.03;1.27;;;19.10;99.90;;;;;;6221973;22;20012;-85
2022/07/05 10:33:01;;;;;;;5.57;1.20;;;19.10;99.90;;;;;;6249675;23;20008;-87
2022/07/05 10:35:27;;;;;;;5.45;1.20;;;18.80;99.90;;;;;;6248737;23;20055;-82
2022/07/05 10:37:53;;;;;;;6.18;1.40;;;18.70;99.90;;;;;;6246210;23;20012;-84
2022/07/05 10:40:19;;;;;;;6.05;1.05;;;18.60;99.90;;;;;;6221469;22;20017;-87
2022/07/05 10:42:48;;;;;;;6.22;1.25;;;18.90;99.90;;;;;;6221433;23;20319;-82
2022/07/05 10:45:29;;;;;;;5.28;1.20;;;18.90;99.90;;;;;;6221831;23;20171;-82
2022/07/05 10:48:09;;;;;;;4.07;1.30;;;19.10;99.90;;;;;;6248469;23;20012;-85
2022/07/05 10:50:54;;;;;;;6.57;1.20;;;19.00;99.90;;;;;;6247036;22;20454;-86
2022/07/05 10:53:23;;;;;;;6.43;1.38;;;19.10;99.90;;;;;;6248771;23;20019;-86
2022/07/05 10:56:05;;;;;;;4.80;1.05;;;19.00;99.90;;;;;;6248403;23;20023;-87
2022/07/05 10:58:32;;;;;;;2.75;0.90;;;19.00;99.90;;;;;;6247666;23;20012;-83
2022/07/05 11:01:19;;;;;;;5.47;0.90;;;19.20;99.90;;;;;;6222207;23;20083;-85
2022/07/05 11:03:47;;;;;;;7.95;1.77;;;19.40;99.90;;;;;;6247953;23;20121;-84
2022/07/05 11:06:27;;;;;;;2.88;1.00;;;19.40;99.90;;;;;;6222688;23;20038;-85
2022/07/05 11:08:59;;;;;;;3.78;1.17;;;19.10;99.90;;;;;;6247458;23;20016;-85
2022/07/05 11:11:42;;;;;;;4.60;1.23;;;19.10;99.90;;;;;;6248989;22;20091;-84
2022/07/05 11:14:22;;;;;;;5.35;1.10;;;19.20;99.90;;;;;;6247319;23;20524;-84
2022/07/05 11:17:25;;;;;;;2.97;1.02;;;19.30;99.90;;;;;;6248574;23;20070;-83
2022/07/05 11:20:14;;;;;;;5.40;1.08;;;19.20;99.90;;;;;;6249686;23;20008;-89
2022/07/05 11:23:00;;;;;;;3.10;0.88;;;19.20;99.90;;;;;;6247173;23;20426;-80
2022/07/05 11:25:31;;;;;;;5.72;0.82;;;19.20;99.90;;;;;;6221078;23;20039;-89
2022/07/05 11:28:05;;;;;;;7.10;0.90;;;19.30;99.90;;;;;;6220261;23;20345;-84
2022/07/05 11:30:47;;;;;;;3.40;0.70;;;19.50;99.90;;;;;;6246099;22;20443;-84
2022/07/05 11:33:33;;;;;;;6.57;1.05;;;20.00;99.90;;;;;;6220971;23;20036;-85
2022/07/05 11:35:59;;;;;;;2.08;0.50;;;20.20;99.90;;;;;;6248384;23;20039;-84
2022/07/05 11:38:25;;;;;;;2.55;0.52;;;20.20;99.90;;;;;;6246607;23;20013;-85
2022/07/05 11:40:53;;;;;;;3.55;0.73;;;20.40;99.90;;;;;;6249225;22;19992;-84
2022/07/05 11:43:27;;;;;;;1.83;0.57;;;20.60;99.90;;;;;;6221461;23;20423;-84
2022/07/05 11:45:58;;;;;;;6.25;0.60;;;20.80;99.90;;;;;;6247630;23;20438;-85
2022/07/05 11:48:26;;;;;;;2.70;0.70;;;20.80;99.90;;;;;;6246971;23;20091;-84
2022/07/05 11:50:51;;;;;;;2.13;0.75;;;21.00;99.90;;;;;;6221096;23;20350;-83
2022/07/05 11:53:31;;;;;;;9.32;0.65;;;21.10;99.90;;;;;;6245533;23;20016;-84
2022/07/05 11:56:00;;;;;;;3.28;0.65;;;20.70;99.90;;;;;;6245789;23;20342;-87
2022/07/05 11:58:32;;;;;;;3.53;0.70;;;20.50;99.90;;;;;;6247583;22;20334;-83
2022/07/05 12:01:07;;;;;;;2.38;0.60;;;20.50;99.90;;;;;;6245652;22;20434;-85
2022/07/05 12:03:33;;;;;;;3.15;0.65;;;20.40;99.90;;;;;;6220704;23;20453;-86
2022/07/05 12:06:17;;;;;;;2.45;0.68;;;20.50;99.90;;;;;;6223359;23;20070;-87
2022/07/05 12:08:43;;;;;;;3.35;0.60;;;20.50;99.90;;;;;;6248108;23;20018;-83
2022/07/05 12:13:56;;;;;;;3.22;0.93;;;20.80;99.90;;;;;;6248957;23;20315;-85
2022/07/05 12:16:25;;;;;;;6.93;1.13;;;20.60;99.90;;;;;;6249674;23;20012;-84
2022/07/05 12:18:55;;;;;;;4.40;0.90;;;20.40;99.90;;;;;;6250664;23;20060;-83
2022/07/05 12:21:22;;;;;;;4.68;0.88;;;20.30;99.90;;;;;;6222374;23;20390;-85
2022/07/05 12:23:50;;;;;;;4.18;1.00;;;20.10;99.90;;;;;;6248461;23;20046;-84
2022/07/05 12:26:17;;;;;;;6.28;0.98;;;20.00;99.90;;;;;;6248686;23;20016;-86
2022/07/05 12:28:44;;;;;;;2.72;0.63;;;20.00;99.90;;;;;;6248729;23;20461;-82
2022/07/05 12:31:16;;;;;;;2.70;0.75;;;20.00;99.90;;;;;;6249742;22;20012;-84
2022/07/05 12:33:46;;;;;;;2.53;0.85;;;19.80;99.90;;;;;;6247960;23;20015;-85
2022/07/05 12:36:17;;;;;;;4.55;0.80;;;19.70;99.90;;;;;;6222980;23;20434;-86
2022/07/05 12:38:43;;;;;;;4.05;0.77;;;19.80;99.90;;;;;;6250806;23;20322;-85
2022/07/05 12:41:09;;;;;;;1.65;0.60;;;19.90;99.90;;;;;;6222120;23;20074;-84
2022/07/05 12:43:55;;;;;;;2.70;0.80;;;20.20;99.90;;;;;;6249649;23;20004;-85
2022/07/05 12:46:37;;;;;;;4.03;0.77;;;20.00;99.90;;;;;;6251105;23;20023;-84
2022/07/05 12:49:03;;;;;;;6.15;1.38;;;20.10;99.90;;;;;;6222763;23;20027;-84
2022/07/05 12:51:40;;;;;;;2.65;1.00;;;20.10;99.90;;;;;;6249619;22;20067;-85
2022/07/05 13:00:06;;;;;;;1.50;0.70;;;20.60;99.90;;;;;;6250577;23;20020;-85
2022/07/05 13:02:45;;;;;;;3.10;0.80;;;20.80;99.90;;;;;;6223583;23;20020;-85
2022/07/05 13:05:25;;;;;;;2.88;1.10;;;20.60;99.90;;;;;;6249173;23;20419;-82
2022/07/05 13:07:52;;;;;;;4.57;0.93;;;20.40;99.90;;;;;;6248644;23;20350;-90
2022/07/05 13:10:19;;;;;;;3.08;0.85;;;20.10;99.90;;;;;;6248955;22;20024;-89
2022/07/05 13:12:47;;;;;;;4.60;1.63;;;20.20;99.90;;;;;;6247753;23;20012;-82
2022/07/05 13:15:12;;;;;;;2.95;0.70;;;20.30;99.90;;;;;;6249306;22;20150;-84
2022/07/05 13:17:39;;;;;;;3.75;0.90;;;20.20;99.90;;;;;;6247928;23;20008;-86
2022/07/05 13:20:19;;;;;;;2.20;1.00;;;20.50;99.90;;;;;;6221295;23;20046;-84
2022/07/05 13:22:46;;;;;;;6.20;0.90;;;20.60;99.90;;;;;;6246493;23;20111;-85
2022/07/05 13:25:13;;;;;;;2.47;0.80;;;20.50;99.90;;;;;;6247653;23;20016;-84
2022/07/05 13:27:41;;;;;;;6.38;0.90;;;20.50;99.90;;;;;;6248185;23;20016;-85
2022/07/05 13:30:11;;;;;;;4.00;0.70;;;20.40;99.90;;;;;;6246636;23;20022;-86
2022/07/05 13:32:36;;;;;;;2.05;0.63;;;20.70;99.90;;;;;;6246368;22;20020;-81
2022/07/05 13:35:05;;;;;;;2.45;0.60;;;21.00;99.90;;;;;;6246084;23;20020;-84
2022/07/05 13:37:31;;;;;;;2.83;0.70;;;21.20;99.90;;;;;;6246547;23;20009;-84
2022/07/05 13:39:56;;;;;;;2.72;0.70;;;21.20;99.90;;;;;;6246408;23;20099;-84
2022/07/05 13:42:23;;;;;;;2.10;0.70;;;21.20;99.90;;;;;;6246289;22;20427;-84
2022/07/05 13:44:59;;;;;;;2.65;0.70;;;21.20;99.90;;;;;;6221233;23;20465;-85
2022/07/05 13:47:24;;;;;;;2.63;0.90;;;21.20;99.90;;;;;;6247008;23;20066;-85
2022/07/05 13:50:31;;;;;;;2.13;1.02;;;21.30;99.90;;;;;;6246518;23;20012;-83
2022/07/05 13:52:36;;;;;;;2.83;0.80;;;21.10;99.90;;;;;;6246397;22;20016;-85
2022/07/05 13:55:01;;;;;;;1.95;0.65;;;21.10;99.90;;;;;;6246492;23;20016;-84
2022/07/05 13:57:31;;;;;;;2.55;0.80;;;21.10;99.90;;;;;;6248241;22;20020;-84
2022/07/05 13:59:57;;;;;;;4.32;0.80;;;21.40;99.90;;;;;;6247062;23;20040;-86
2022/07/05 14:02:22;;;;;;;5.38;1.05;;;21.70;99.90;;;;;;6246767;22;20019;-83
2022/07/05 14:04:48;;;;;;;3.05;1.05;;;21.50;99.90;;;;;;6247931;23;20012;-81
2022/07/05 14:07:16;;;;;;;4.60;1.13;;;21.30;99.90;;;;;;6246177;23;20016;-83
2022/07/05 14:09:42;;;;;;;4.20;0.98;;;21.00;99.90;;;;;;6220785;23;20070;-85
2022/07/05 14:12:07;;;;;;;5.53;0.93;;;20.70;99.90;;;;;;6249176;22;20016;-85
2022/07/05 14:14:33;;;;;;;2.92;1.08;;;20.50;99.90;;;;;;6246633;23;20381;-89
2022/07/05 14:16:59;;;;;;;5.40;0.93;;;20.30;99.90;;;;;;6247831;23;20016;-86
2022/07/05 14:19:35;;;;;;;2.17;0.80;;;20.40;99.90;;;;;;6247258;23;20015;-86
2022/07/05 14:22:00;;;;;;;6.50;1.20;;;20.60;99.90;;;;;;6246093;22;20020;-86
2022/07/05 14:24:26;;;;;;;3.30;0.80;;;21.00;99.90;;;;;;6246792;23;20004;-84
2022/07/05 14:26:51;;;;;;;3.58;0.93;;;21.20;99.90;;;;;;6249004;23;20315;-84
2022/07/05 14:29:17;;;;;;;3.00;0.80;;;21.20;99.90;;;;;;6221484;23;20020;-84
2022/07/05 14:31:43;;;;;;;2.38;0.73;;;21.10;99.90;;;;;;6220726;23;20377;-85
2022/07/05 14:34:08;;;;;;;3.00;0.85;;;21.00;99.90;;;;;;6221218;23;20048;-85
2022/07/05 14:36:34;;;;;;;3.05;0.88;;;20.30;99.90;;;;;;6249057;23;20039;-84
2022/07/05 14:39:00;;;;;;;2.85;0.90;;;20.10;99.90;;;;;;6248670;23;20477;-87
2022/07/05 14:41:27;;;;;;;2.92;0.90;;;20.00;99.90;;;;;;6221562;23;20430;-83
2022/07/05 14:43:56;;;;;;;3.47;0.82;;;19.90;99.90;;;;;;6247174;23;20004;-86
2022/07/05 14:46:21;;;;;;;4.38;0.98;;;19.80;99.90;;;;;;6221665;23;20080;-85
2022/07/05 14:48:47;;;;;;;3.85;1.00;;;19.90;99.90;;;;;;6247249;23;20070;-85
2022/07/05 14:51:13;;;;;;;2.88;1.00;;;19.80;99.90;;;;;;6246389;22;20438;-84
2022/07/05 14:53:42;;;;;;;3.25;1.10;;;19.90;99.90;;;;;;6246454;23;20054;-81
2022/07/05 14:56:08;;;;;;;3.78;1.10;;;19.90;99.90;;;;;;6246210;23;20020;-82
2022/07/05 14:58:33;;;;;;;3.70;1.10;;;20.00;99.90;;;;;;6221107;23;20373;-86
2022/07/05 15:00:59;;;;;;;4.45;1.42;;;20.10;99.90;;;;;;6246634;22;20011;-84
2022/07/05 15:03:25;;;;;;;4.18;1.20;;;20.20;99.90;;;;;;6246219;23;20023;-86
2022/07/05 15:05:52;;;;;;;2.42;0.80;;;20.20;99.90;;;;;;6249487;22;20054;-83
2022/07/05 15:08:21;;;;;;;4.05;1.17;;;20.10;99.90;;;;;;6246446;23;20090;-83
2022/07/05 15:10:48;;;;;;;4.05;1.10;;;19.90;99.90;;;;;;6245626;22;20095;-85
2022/07/05 15:13:14;;;;;;;4.20;1.08;;;19.80;99.90;;;;;;6246313;23;20016;-84
2022/07/05 15:15:40;;;;;;;4.30;1.00;;;19.90;99.90;;;;;;6221208;23;20452;-82
2022/07/05 15:18:05;;;;;;;5.78;1.15;;;20.20;99.90;;;;;;6247030;23;20012;-86
2022/07/05 15:20:31;;;;;;;5.13;1.05;;;20.40;99.90;;;;;;6247212;22;20462;-85
2022/07/05 15:22:57;;;;;;;3.92;1.00;;;20.60;99.90;;;;;;6248072;23;20008;-84
2022/07/05 15:25:23;;;;;;;2.92;1.10;;;20.40;99.90;;;;;;6246467;23;20016;-85
2022/07/05 15:27:53;;;;;;;3.55;1.00;;;20.50;99.90;;;;;;6246361;23;20410;-88
2022/07/05 15:30:22;;;;;;;4.65;1.10;;;20.50;99.90;;;;;;6248410;22;20311;-77
2022/07/05 15:32:51;;;;;;;4.40;0.90;;;20.30;99.90;;;;;;6248242;23;20016;-86
2022/07/05 15:35:17;;;;;;;4.93;1.10;;;19.80;99.90;;;;;;6246163;23;20035;-86
2022/07/05 15:37:44;;;;;;;7.28;1.20;;;19.80;99.90;;;;;;6246628;23;20016;-85
2022/07/05 15:40:10;;;;;;;2.60;0.90;;;19.70;99.90;;;;;;6221851;23;20008;-85
2022/07/05 15:42:36;;;;;;;4.00;1.20;;;19.60;99.90;;;;;;6221493;23;20012;-86
2022/07/05 15:45:02;;;;;;;4.40;1.05;;;19.50;99.90;;;;;;6247732;22;20087;-83
2022/07/05 15:47:28;;;;;;;7.13;0.90;;;19.30;99.90;;;;;;6220618;23;20527;-87
2022/07/05 15:49:54;;;;;;;2.33;0.80;;;19.30;99.90;;;;;;6248410;23;20079;-87
2022/07/05 15:52:20;;;;;;;5.85;1.70;;;19.20;99.90;;;;;;6245756;22;20047;-86
2022/07/05 15:54:46;;;;;;;2.63;1.13;;;18.90;99.90;;;;;;6248840;23;20386;-87
2022/07/05 15:57:12;;;;;;;3.88;0.93;;;18.80;99.90;;;;;;6221238;23;20031;-86
2022/07/05 15:59:38;;;;;;;2.83;0.88;;;18.70;99.90;;;;;;6248517;23;20092;-88
2022/07/05 16:02:04;;;;;;;5.90;1.10;;;18.70;99.90;;;;;;6221857;23;20044;-86
2022/07/05 16:04:30;;;;;;;3.92;0.95;;;18.60;99.90;;;;;;6220430;23;20004;-86
2022/07/05 16:06:59;;;;;;;5.20;1.00;;;18.60;99.90;;;;;;6246816;23;20047;-86
2022/07/05 16:09:26;;;;;;;5.15;0.82;;;18.50;99.90;;;;;;6247358;23;20068;-86
2022/07/05 16:11:52;;;;;;;2.78;1.20;;;18.50;99.90;;;;;;6248463;22;20087;-85